createdAt,value
2019-04-27T00:02:07.584Z,77.60
2019-04-27T00:05:06.852Z,77.70
2019-04-27T00:07:59.350Z,77.80
2019-04-27T00:10:50.980Z,78.00
2019-04-27T00:13:19.158Z,78.00
2019-04-27T00:16:09.806Z,78.20
2019-04-27T00:18:58.100Z,79.30
2019-04-27T00:21:32.855Z,78.70
2019-04-27T00:24:01.310Z,78.80
2019-04-27T00:26:30.340Z,79.10
2019-04-27T00:28:57.891Z,79.20
2019-04-27T00:31:25.831Z,80.20
2019-04-27T00:33:53.677Z,79.70
2019-04-27T00:36:28.375Z,79.80
2019-04-27T00:39:05.253Z,79.90
2019-04-27T00:41:33.974Z,80.00
2019-04-27T00:44:03.327Z,80.10
2019-04-27T00:46:33.079Z,80.20
2019-04-27T00:49:01.507Z,80.30
2019-04-27T00:51:29.330Z,80.70
2019-04-27T00:53:57.191Z,80.60
2019-04-27T00:56:54.115Z,80.60
2019-04-27T00:59:40.096Z,80.80
2019-04-27T01:02:27.277Z,81.60
2019-04-27T01:04:55.163Z,81.00
2019-04-27T01:07:22.785Z,81.00
2019-04-27T01:09:52.793Z,80.90
2019-04-27T01:12:21.303Z,80.90
2019-04-27T01:14:48.832Z,81.00
2019-04-27T01:17:16.376Z,81.10
2019-04-27T01:19:44.066Z,81.00
2019-04-27T01:22:11.801Z,81.00
2019-04-27T01:24:39.610Z,81.00
2019-04-27T01:27:25.092Z,81.20
2019-04-27T01:29:54.912Z,81.00
2019-04-27T01:32:22.437Z,80.90
2019-04-27T01:34:50.302Z,80.90
2019-04-27T01:37:19.722Z,81.00
2019-04-27T01:39:48.531Z,80.90
2019-04-27T01:42:18.863Z,81.00
2019-04-27T01:44:46.817Z,81.00
2019-04-27T01:47:14.684Z,81.00
2019-04-27T01:49:42.447Z,80.90
2019-04-27T01:52:10.217Z,80.90
2019-04-27T01:54:39.271Z,81.00
2019-04-27T01:57:10.211Z,80.90
2019-04-27T01:59:38.746Z,80.90
2019-04-27T02:02:29.283Z,80.70
2019-04-27T02:05:15.547Z,80.50
2019-04-27T02:07:44.188Z,80.60
2019-04-27T02:10:13.311Z,81.10
2019-04-27T02:12:43.651Z,80.50
2019-04-27T02:15:10.938Z,80.40
2019-04-27T02:17:38.640Z,80.40
2019-04-27T02:20:07.378Z,79.60
2019-04-27T02:22:35.590Z,80.20
2019-04-27T02:25:03.721Z,80.30
2019-04-27T02:27:32.978Z,80.10
2019-04-27T02:30:20.686Z,80.20
2019-04-27T02:33:20.055Z,79.90
2019-04-27T02:35:46.758Z,79.70
2019-04-27T02:38:14.512Z,79.70
2019-04-27T02:41:01.165Z,79.60
2019-04-27T02:43:43.557Z,79.60
2019-04-27T02:46:11.479Z,79.70
2019-04-27T02:48:52.985Z,79.80
2019-04-27T02:51:10.538Z,79.90
2019-04-27T02:53:54.945Z,79.90
2019-04-27T02:56:22.878Z,79.80
2019-04-27T02:58:50.849Z,80.00
2019-04-27T03:01:20.072Z,79.80
2019-04-27T03:03:50.031Z,79.90
2019-04-27T03:06:19.674Z,79.90
2019-04-27T03:08:50.657Z,79.70
2019-04-27T03:11:16.388Z,80.00
2019-04-27T03:14:02.687Z,80.10
2019-04-27T03:16:45.879Z,80.20
2019-04-27T03:19:29.765Z,79.30
2019-04-27T03:22:09.640Z,79.20
2019-04-27T03:25:00.169Z,79.20
2019-04-27T03:27:30.396Z,79.20
2019-04-27T03:29:59.718Z,79.20
2019-04-27T03:32:31.311Z,79.20
2019-04-27T03:35:02.133Z,79.30
2019-04-27T03:37:30.128Z,79.30
2019-04-27T03:39:59.928Z,79.40
2019-04-27T03:42:26.532Z,79.50
2019-04-27T03:44:54.753Z,79.50
2019-04-27T03:47:25.920Z,79.60
2019-04-27T03:49:54.543Z,79.60
2019-04-27T03:52:39.698Z,80.70
2019-04-27T03:55:12.540Z,80.00
2019-04-27T03:57:46.092Z,79.90
2019-04-27T04:00:19.663Z,80.10
2019-04-27T04:02:46.337Z,80.10
2019-04-27T04:05:14.087Z,80.00
2019-04-27T04:07:42.558Z,80.10
2019-04-27T04:10:11.041Z,80.30
2019-04-27T04:12:56.370Z,80.40
2019-04-27T04:15:34.744Z,80.50
2019-04-27T04:18:02.333Z,80.30
2019-04-27T04:20:30.564Z,80.40
2019-04-27T04:23:00.183Z,80.40
2019-04-27T04:25:30.240Z,80.40
2019-04-27T04:28:00.631Z,80.30
2019-04-27T04:30:30.317Z,80.30
2019-04-27T04:32:59.960Z,80.40
2019-04-27T04:35:27.503Z,80.30
2019-04-27T04:37:55.412Z,80.30
2019-04-27T04:40:33.043Z,80.30
2019-04-27T04:43:13.029Z,80.30
2019-04-27T04:46:13.072Z,80.50
2019-04-27T04:48:40.452Z,80.70
2019-04-27T04:51:10.136Z,80.70
2019-04-27T04:53:39.988Z,80.80
2019-04-27T04:56:09.017Z,80.90
2019-04-27T04:58:39.278Z,81.00
2019-04-27T05:01:09.708Z,81.00
2019-04-27T05:03:38.767Z,81.20
2019-04-27T05:06:06.523Z,81.30
2019-04-27T05:08:34.500Z,81.60
2019-04-27T05:11:02.085Z,81.90
2019-04-27T05:13:29.721Z,82.00
2019-04-27T05:15:58.904Z,82.30
2019-04-27T05:18:29.337Z,82.20
2019-04-27T05:21:06.324Z,82.10
2019-04-27T05:23:33.797Z,82.30
2019-04-27T05:26:01.158Z,82.10
2019-04-27T05:28:29.887Z,82.10
2019-04-27T05:30:59.013Z,82.10
2019-04-27T05:33:28.588Z,82.30
2019-04-27T05:35:58.972Z,82.40
2019-04-27T05:38:26.943Z,82.50
2019-04-27T05:40:55.417Z,82.70
2019-04-27T05:43:30.171Z,83.00
2019-04-27T05:46:40.075Z,83.20
2019-04-27T05:49:12.370Z,83.50
2019-04-27T05:51:41.874Z,83.90
2019-04-27T05:54:10.235Z,84.30
2019-04-27T05:56:39.010Z,84.50
2019-04-27T05:59:06.524Z,84.50
2019-04-27T06:01:34.450Z,84.80
2019-04-27T06:04:02.596Z,85.10
2019-04-27T06:06:30.669Z,85.30
2019-04-27T06:08:59.453Z,85.40
2019-04-27T06:11:28.612Z,85.60
2019-04-27T06:13:56.296Z,85.90
2019-04-27T06:16:24.306Z,86.00
2019-04-27T06:18:52.600Z,86.20
2019-04-27T06:21:20.787Z,86.20
2019-04-27T06:23:50.698Z,86.50
2019-04-27T06:26:21.137Z,86.60
2019-04-27T06:28:50.399Z,86.90
2019-04-27T06:31:19.617Z,87.20
2019-04-27T06:33:49.694Z,87.50
2019-04-27T06:36:19.587Z,87.80
2019-04-27T06:38:48.573Z,88.10
2019-04-27T06:41:18.841Z,88.60
2019-04-27T06:43:50.489Z,88.70
2019-04-27T06:46:19.885Z,88.70
2019-04-27T06:48:49.562Z,88.70
2019-04-27T06:51:17.490Z,89.00
2019-04-27T06:53:45.468Z,89.10
2019-04-27T06:56:14.050Z,89.10
2019-04-27T06:58:41.804Z,89.80
2019-04-27T07:01:10.993Z,89.90
2019-04-27T07:03:39.574Z,89.90
2019-04-27T07:06:10.880Z,89.90
2019-04-27T07:08:40.076Z,90.00
2019-04-27T07:11:08.984Z,90.30
2019-04-27T07:13:39.019Z,90.50
2019-04-27T07:16:09.645Z,90.90
2019-04-27T07:18:37.551Z,90.90
2019-04-27T07:21:16.161Z,91.10
2019-04-27T07:23:38.863Z,91.30
2019-04-27T07:26:06.374Z,91.30
2019-04-27T07:28:34.636Z,91.40
2019-04-27T07:31:02.423Z,91.50
2019-04-27T07:33:30.470Z,91.50
2019-04-27T07:35:59.057Z,91.50
2019-04-27T07:38:26.607Z,91.60
2019-04-27T07:40:54.986Z,91.80
2019-04-27T07:43:33.696Z,92.00
2019-04-27T07:46:01.175Z,92.00
2019-04-27T07:48:29.647Z,91.90
2019-04-27T07:51:00.173Z,92.00
2019-04-27T07:53:29.167Z,91.90
2019-04-27T07:55:56.907Z,92.00
2019-04-27T07:58:24.907Z,91.90
2019-04-27T08:00:52.727Z,92.00
2019-04-27T08:03:21.156Z,92.10
2019-04-27T08:05:49.355Z,92.30
2019-04-27T08:08:18.876Z,92.40
2019-04-27T08:10:48.415Z,92.40
2019-04-27T08:13:16.713Z,92.70
2019-04-27T08:15:49.473Z,92.50
2019-04-27T08:18:18.918Z,92.70
2019-04-27T08:20:46.717Z,92.90
2019-04-27T08:23:15.018Z,92.90
2019-04-27T08:25:49.036Z,92.90
2019-04-27T08:28:39.209Z,93.00
2019-04-27T08:31:14.671Z,93.10
2019-04-27T08:33:42.964Z,93.20
2019-04-27T08:36:11.437Z,93.20
2019-04-27T08:38:39.925Z,93.30
2019-04-27T08:41:09.039Z,93.30
2019-04-27T08:43:38.843Z,93.40
2019-04-27T08:46:08.618Z,93.50
2019-04-27T08:48:37.094Z,93.70
2019-04-27T08:51:06.326Z,93.90
2019-04-27T08:53:33.745Z,94.10
2019-04-27T08:56:01.662Z,94.10
2019-04-27T08:58:29.354Z,94.20
2019-04-27T09:00:58.900Z,94.20
2019-04-27T09:03:26.871Z,94.20
2019-04-27T09:05:55.061Z,94.20
2019-04-27T09:08:29.503Z,94.20
2019-04-27T09:11:12.292Z,94.10
2019-04-27T09:13:49.971Z,94.20
2019-04-27T09:16:30.068Z,93.40
2019-04-27T09:19:02.729Z,93.30
2019-04-27T09:21:50.132Z,92.20
2019-04-27T09:24:18.831Z,91.80
2019-04-27T09:26:49.129Z,91.50
2019-04-27T09:29:16.880Z,91.30
2019-04-27T09:31:45.113Z,91.40
2019-04-27T09:34:14.735Z,91.40
2019-04-27T09:36:42.429Z,91.00
2019-04-27T09:39:10.950Z,91.00
2019-04-27T09:41:38.726Z,90.50
2019-04-27T09:44:06.247Z,90.30
2019-04-27T09:46:36.310Z,90.00
2019-04-27T09:49:03.933Z,90.10
2019-04-27T09:51:32.586Z,90.20
2019-04-27T09:54:00.643Z,90.10
2019-04-27T09:56:28.482Z,90.10
2019-04-27T09:58:57.289Z,89.70
2019-04-27T10:01:26.479Z,90.20
2019-04-27T10:03:56.690Z,89.40
2019-04-27T10:06:29.332Z,89.20
2019-04-27T10:08:55.987Z,89.60
2019-04-27T10:11:26.069Z,87.60
2019-04-27T10:13:55.619Z,87.30
2019-04-27T10:16:25.592Z,86.00
2019-04-27T10:18:53.197Z,85.10
2019-04-27T10:21:20.991Z,86.50
2019-04-27T10:23:49.103Z,86.80
2019-04-27T10:26:17.399Z,87.00
2019-04-27T10:28:45.819Z,86.50
2019-04-27T10:31:13.728Z,85.90
2019-04-27T10:33:41.350Z,86.30
2019-04-27T10:36:09.192Z,86.40
2019-04-27T10:38:36.793Z,86.80
2019-04-27T10:41:05.709Z,86.70
2019-04-27T10:43:34.634Z,86.00
2019-04-27T10:46:02.044Z,86.50
2019-04-27T10:48:29.957Z,85.70
2019-04-27T10:50:57.722Z,83.90
2019-04-27T10:53:26.892Z,83.90
2019-04-27T10:55:54.370Z,84.30
2019-04-27T10:58:22.038Z,84.20
2019-04-27T11:00:52.648Z,85.10
2019-04-27T11:03:39.884Z,85.70
2019-04-27T11:06:28.249Z,85.90
2019-04-27T11:08:56.501Z,86.40
2019-04-27T11:11:27.903Z,86.10
2019-04-27T11:14:00.826Z,86.60
2019-04-27T11:16:27.499Z,86.50
2019-04-27T11:18:56.455Z,85.40
2019-04-27T11:21:26.178Z,86.00
2019-04-27T11:23:55.933Z,86.00
2019-04-27T11:26:26.196Z,87.50
2019-04-27T11:28:53.794Z,86.90
2019-04-27T11:31:22.004Z,86.80
2019-04-27T11:33:49.920Z,87.00
2019-04-27T11:36:38.555Z,87.90
2019-04-27T11:39:12.127Z,88.00
2019-04-27T11:41:39.961Z,86.90
2019-04-27T11:44:07.712Z,86.10
2019-04-27T11:46:35.920Z,85.60
2019-04-27T11:49:03.567Z,85.70
2019-04-27T11:51:31.394Z,86.40
2019-04-27T11:53:59.076Z,85.40
2019-04-27T11:56:27.455Z,85.10
2019-04-27T11:58:56.041Z,85.80
2019-04-27T12:01:23.624Z,85.40
2019-04-27T12:03:51.648Z,84.20
2019-04-27T12:06:19.754Z,83.80
2019-04-27T12:08:48.101Z,82.20
2019-04-27T12:11:16.066Z,82.00
2019-04-27T12:13:45.959Z,81.50
2019-04-27T12:16:15.647Z,81.80
2019-04-27T12:18:43.395Z,82.00
2019-04-27T12:21:11.589Z,81.90
2019-04-27T12:23:41.407Z,82.00
2019-04-27T12:26:25.942Z,81.10
2019-04-27T12:28:54.018Z,81.20
2019-04-27T12:31:27.051Z,81.50
2019-04-27T12:33:56.048Z,83.10
2019-04-27T12:36:25.775Z,81.90
2019-04-27T12:38:54.281Z,82.00
2019-04-27T12:41:22.654Z,82.20
2019-04-27T12:43:50.714Z,82.20
2019-04-27T12:46:18.655Z,82.00
2019-04-27T12:48:46.684Z,81.60
2019-04-27T12:51:14.685Z,81.90
2019-04-27T12:53:52.904Z,82.20
2019-04-27T12:56:33.748Z,82.40
2019-04-27T12:59:08.475Z,82.60
2019-04-27T13:01:36.251Z,82.70
2019-04-27T13:04:04.032Z,82.40
2019-04-27T13:06:32.857Z,82.50
2019-04-27T13:09:00.724Z,82.20
2019-04-27T13:11:28.557Z,81.70
2019-04-27T13:13:57.642Z,81.20
2019-04-27T13:16:27.209Z,79.60
2019-04-27T13:18:57.500Z,78.60
2019-04-27T13:21:26.272Z,78.10
2019-04-27T13:24:02.029Z,78.30
2019-04-27T13:26:24.173Z,78.80
2019-04-27T13:28:52.019Z,78.70
2019-04-27T13:31:21.252Z,78.30
2019-04-27T13:33:49.271Z,77.80
2019-04-27T13:36:17.217Z,77.50
2019-04-27T13:38:46.714Z,77.20
2019-04-27T13:41:26.179Z,77.70
2019-04-27T13:43:44.600Z,78.00
2019-04-27T13:46:23.906Z,78.60
2019-04-27T13:49:20.762Z,80.20
2019-04-27T13:52:01.935Z,82.40
2019-04-27T13:54:29.636Z,83.10
2019-04-27T13:56:57.564Z,84.10
2019-04-27T13:59:25.582Z,84.50
2019-04-27T14:01:53.259Z,84.10
2019-04-27T14:04:20.803Z,84.20
2019-04-27T14:06:49.548Z,83.10
2019-04-27T14:09:17.303Z,83.30
2019-04-27T14:11:46.028Z,84.30
2019-04-27T14:14:13.792Z,83.80
2019-04-27T14:16:43.726Z,83.80
2019-04-27T14:19:11.204Z,83.00
2019-04-27T14:21:39.280Z,82.60
2019-04-27T14:24:06.999Z,82.20
2019-04-27T14:26:34.873Z,81.90
2019-04-27T14:29:02.561Z,82.30
2019-04-27T14:31:30.784Z,80.70
2019-04-27T14:33:58.916Z,80.30
2019-04-27T14:36:26.912Z,80.00
2019-04-27T14:38:54.578Z,80.10
2019-04-27T14:41:23.302Z,78.90
2019-04-27T14:44:05.406Z,79.20
2019-04-27T14:46:20.630Z,84.70
2019-04-27T14:48:48.933Z,86.10
2019-04-27T14:51:18.660Z,86.10
2019-04-27T14:53:46.372Z,87.10
2019-04-27T14:56:13.985Z,85.40
2019-04-27T14:58:41.810Z,86.10
2019-04-27T15:01:10.285Z,84.70
2019-04-27T15:03:38.194Z,81.60
2019-04-27T15:06:06.041Z,81.40
2019-04-27T15:08:34.132Z,80.10
2019-04-27T15:11:04.128Z,78.60
2019-04-27T15:13:32.084Z,79.10
2019-04-27T15:16:02.558Z,78.40
2019-04-27T15:18:42.157Z,78.80
2019-04-27T15:21:05.711Z,79.40
2019-04-27T15:23:33.479Z,79.40
2019-04-27T15:26:01.685Z,80.20
2019-04-27T15:28:32.061Z,79.60
2019-04-27T15:31:26.339Z,79.00
2019-04-27T15:34:02.200Z,77.50
2019-04-27T15:36:43.733Z,75.30
2019-04-27T15:39:18.232Z,74.90
2019-04-27T15:41:51.686Z,76.50
2019-04-27T15:44:19.453Z,77.00
2019-04-27T15:46:47.944Z,77.10
2019-04-27T15:49:15.766Z,75.70
2019-04-27T15:51:43.677Z,76.10
2019-04-27T15:54:11.355Z,75.00
2019-04-27T15:56:39.321Z,74.60
2019-04-27T15:59:08.646Z,74.50
2019-04-27T16:01:39.539Z,75.20
2019-04-27T16:04:11.028Z,75.70
2019-04-27T16:06:38.481Z,75.00
2019-04-27T16:09:10.381Z,75.50
2019-04-27T16:11:38.620Z,75.60
2019-04-27T16:14:06.715Z,76.00
2019-04-27T16:16:35.684Z,76.20
2019-04-27T16:19:08.991Z,76.30
2019-04-27T16:21:34.930Z,76.50
2019-04-27T16:24:02.571Z,76.60
2019-04-27T16:26:30.925Z,76.60
2019-04-27T16:28:59.439Z,77.30
2019-04-27T16:31:30.231Z,76.70
2019-04-27T16:34:02.512Z,76.10
2019-04-27T16:36:28.818Z,74.60
2019-04-27T16:39:03.697Z,74.70
2019-04-27T16:41:33.084Z,74.90
2019-04-27T16:44:02.226Z,75.30
2019-04-27T16:46:29.240Z,75.50
2019-04-27T16:48:59.519Z,75.80
2019-04-27T16:51:36.808Z,76.30
2019-04-27T16:54:01.528Z,76.60
2019-04-27T16:56:29.408Z,76.90
2019-04-27T16:59:05.375Z,77.20
2019-04-27T17:01:30.464Z,77.30
2019-04-27T17:03:59.542Z,77.20
2019-04-27T17:06:29.515Z,77.00
2019-04-27T17:09:04.785Z,77.40
2019-04-27T17:11:27.416Z,76.50
2019-04-27T17:14:03.053Z,77.00
2019-04-27T17:16:53.550Z,77.20
2019-04-27T17:19:30.705Z,77.30
2019-04-27T17:21:59.104Z,76.70
2019-04-27T17:24:43.920Z,76.70
2019-04-27T17:27:11.206Z,76.90
2019-04-27T17:29:38.872Z,77.00
2019-04-27T17:32:08.887Z,77.30
2019-04-27T17:34:37.199Z,77.60
2019-04-27T17:37:04.845Z,77.90
2019-04-27T17:39:33.073Z,78.10
2019-04-27T17:42:01.238Z,78.20
2019-04-27T17:44:29.012Z,78.30
2019-04-27T17:46:56.748Z,78.40
2019-04-27T17:49:24.436Z,78.70
2019-04-27T17:51:52.130Z,79.00
2019-04-27T17:54:19.876Z,79.50
2019-04-27T17:56:52.147Z,85.10
2019-04-27T17:59:20.758Z,90.00
2019-04-27T18:01:49.469Z,90.80
2019-04-27T18:04:18.525Z,90.90
2019-04-27T18:06:48.220Z,91.70
2019-04-27T18:09:18.943Z,91.00
2019-04-27T18:11:50.328Z,90.60
2019-04-27T18:14:19.250Z,90.20
2019-04-27T18:16:48.274Z,90.50
2019-04-27T18:19:34.780Z,90.00
2019-04-27T18:22:04.283Z,90.40
2019-04-27T18:24:38.036Z,90.50
2019-04-27T18:27:18.721Z,90.70
2019-04-27T18:29:46.179Z,90.70
2019-04-27T18:32:14.401Z,91.10
2019-04-27T18:34:45.242Z,91.20
2019-04-27T18:37:14.452Z,91.30
2019-04-27T18:39:45.323Z,91.80
2019-04-27T18:42:11.628Z,91.80
2019-04-27T18:44:39.799Z,92.30
2019-04-27T18:47:08.400Z,91.90
2019-04-27T18:49:54.897Z,91.90
2019-04-27T18:52:54.591Z,92.10
2019-04-27T18:55:22.658Z,91.90
2019-04-27T18:57:54.229Z,91.80
2019-04-27T19:00:21.101Z,91.80
2019-04-27T19:02:50.404Z,92.00
2019-04-27T19:05:18.897Z,91.80
2019-04-27T19:07:48.455Z,91.70
2019-04-27T19:10:16.313Z,91.50
2019-04-27T19:12:44.305Z,91.70
2019-04-27T19:15:12.950Z,91.70
2019-04-27T19:17:40.659Z,91.60
2019-04-27T19:20:10.462Z,91.80
2019-04-27T19:22:39.438Z,91.70
2019-04-27T19:25:09.846Z,91.60
2019-04-27T19:28:02.747Z,91.70
2019-04-27T19:30:37.048Z,91.40
2019-04-27T19:33:04.822Z,91.00
2019-04-27T19:35:32.425Z,90.90
2019-04-27T19:38:00.128Z,91.20
2019-04-27T19:40:29.043Z,91.20
2019-04-27T19:42:58.724Z,91.10
2019-04-27T19:45:26.363Z,90.90
2019-04-27T19:47:55.254Z,90.90
2019-04-27T19:50:23.553Z,91.00
2019-04-27T19:52:51.626Z,91.40
2019-04-27T19:55:19.371Z,91.20
2019-04-27T19:57:47.321Z,91.20
2019-04-27T20:00:26.779Z,91.00
2019-04-27T20:02:54.344Z,90.80
2019-04-27T20:05:22.118Z,90.70
2019-04-27T20:07:49.777Z,90.10
2019-04-27T20:10:17.323Z,90.00
2019-04-27T20:12:45.308Z,90.00
2019-04-27T20:15:13.056Z,90.20
2019-04-27T20:17:41.233Z,89.80
2019-04-27T20:20:08.801Z,90.10
2019-04-27T20:22:36.629Z,89.90
2019-04-27T20:25:04.798Z,90.00
2019-04-27T20:27:45.318Z,89.90
2019-04-27T20:30:03.188Z,88.80
2019-04-27T20:32:31.442Z,89.20
2019-04-27T20:34:59.066Z,89.10
2019-04-27T20:37:31.313Z,88.90
2019-04-27T20:40:01.212Z,88.70
2019-04-27T20:42:29.163Z,89.10
2019-04-27T20:44:57.250Z,88.00
2019-04-27T20:47:25.238Z,87.80
2019-04-27T20:49:52.660Z,87.50
2019-04-27T20:52:42.877Z,87.30
2019-04-27T20:55:11.583Z,87.20
2019-04-27T20:57:41.670Z,87.80
2019-04-27T21:00:11.825Z,87.50
2019-04-27T21:02:51.849Z,87.30
2019-04-27T21:05:37.934Z,86.60
2019-04-27T21:08:07.067Z,86.60
2019-04-27T21:10:35.079Z,86.70
2019-04-27T21:13:03.105Z,86.60
2019-04-27T21:15:31.565Z,86.50
2019-04-27T21:18:01.137Z,86.50
2019-04-27T21:20:28.672Z,86.10
2019-04-27T21:22:56.064Z,85.60
2019-04-27T21:25:23.458Z,85.20
2019-04-27T21:27:57.319Z,84.70
2019-04-27T21:30:25.082Z,84.50
2019-04-27T21:32:52.858Z,84.20
2019-04-27T21:35:21.095Z,83.80
2019-04-27T21:37:51.970Z,83.60
2019-04-27T21:40:21.507Z,83.60
2019-04-27T21:42:51.123Z,83.70
2019-04-27T21:45:21.601Z,83.80
2019-04-27T21:47:49.372Z,83.50
2019-04-27T21:50:17.120Z,83.40
2019-04-27T21:53:11.032Z,83.20
2019-04-27T21:55:38.942Z,82.90
2019-04-27T21:58:06.588Z,82.90
2019-04-27T22:00:54.700Z,82.60
2019-04-27T22:03:26.821Z,82.40
2019-04-27T22:05:54.518Z,82.10
2019-04-27T22:08:22.439Z,82.90
2019-04-27T22:10:50.539Z,81.60
2019-04-27T22:13:18.056Z,82.40
2019-04-27T22:15:45.631Z,82.30
2019-04-27T22:18:17.255Z,80.70
2019-04-27T22:20:45.295Z,81.00
2019-04-27T22:23:23.150Z,80.90
2019-04-27T22:25:54.170Z,81.40
2019-04-27T22:28:20.890Z,80.90
2019-04-27T22:30:48.757Z,81.20
2019-04-27T22:33:17.682Z,81.60
2019-04-27T22:35:45.578Z,81.50
2019-04-27T22:38:13.184Z,81.60
2019-04-27T22:41:07.599Z,81.50
2019-04-27T22:44:11.512Z,82.00
2019-04-27T22:46:41.085Z,81.60
2019-04-27T22:49:08.766Z,81.00
2019-04-27T22:51:36.442Z,80.50
2019-04-27T22:54:04.407Z,80.40
2019-04-27T22:56:32.251Z,80.10
2019-04-27T22:59:17.683Z,80.10
2019-04-27T23:02:23.204Z,80.00
2019-04-27T23:04:56.807Z,80.30
2019-04-27T23:07:24.307Z,80.00
2019-04-27T23:09:51.780Z,80.20
2019-04-27T23:12:21.323Z,80.00
2019-04-27T23:14:50.415Z,80.30
2019-04-27T23:17:36.438Z,80.10
2019-04-27T23:20:04.908Z,80.00
2019-04-27T23:22:33.542Z,80.00
2019-04-27T23:25:01.135Z,80.10
2019-04-27T23:27:29.191Z,80.10
2019-04-27T23:29:56.915Z,80.30
2019-04-27T23:32:31.693Z,80.50
2019-04-27T23:34:59.180Z,79.90
2019-04-27T23:37:27.427Z,79.80
2019-04-27T23:39:55.146Z,79.70
2019-04-27T23:42:23.428Z,79.50
2019-04-27T23:44:51.552Z,79.20
2019-04-27T23:47:20.041Z,79.40
2019-04-27T23:49:47.643Z,79.40
2019-04-27T23:52:19.851Z,79.20
2019-04-27T23:54:47.830Z,79.30
2019-04-27T23:57:15.391Z,79.30
2019-04-27T23:59:42.760Z,79.20
